This is the latest recevied weather packets stored in our database for station/object VK6HGR-1. If no packets are shown the sender has not sent any weather packets the latest 1 day(s).
| Time | Temp. | Humidity | Pressure | Rain* | Wind** | Luminosity | Snow |
|---|---|---|---|---|---|---|---|
| 1778118316 | 17.78° C | 56% | 1028.8 hPa | - | - | - | - |
| 1778117416 | 17.22° C | 58% | 1028.9 hPa | - | - | - | - |
| 1778115613 | 15.56° C | 62% | 1028.8 hPa | - | - | - | - |
| 1778114710 | 15° C | 63% | 1028.9 hPa | - | - | - | - |
| 1778113810 | 13.89° C | 64% | 1028.9 hPa | - | - | - | - |
| 1778112913 | 13.33° C | 65% | 1028.9 hPa | - | - | - | - |
| 1778104811 | 12.78° C | 65% | 1027.8 hPa | - | - | - | - |
| 1778101211 | 12.78° C | 66% | 1027.5 hPa | - | - | - | - |
| 1778099411 | 13.89° C | 63% | 1027.4 hPa | - | - | - | - |
| 1778097611 | 14.44° C | 62% | 1027.1 hPa | - | - | - | - |
| 1778094911 | 15° C | 61% | 1027 hPa | - | - | - | - |
| 1778093112 | 15° C | 61% | 1027 hPa | - | - | - | - |
| 1778089512 | 15° C | 59% | 1026.8 hPa | - | - | - | - |
| 1778087712 | 15.56° C | 58% | 1026.8 hPa | - | - | - | - |
| 1778085911 | 16.11° C | 57% | 1026.8 hPa | - | - | - | - |
| 1778084111 | 16.67° C | 55% | 1027 hPa | - | - | - | - |
| 1778081411 | 16.67° C | 55% | 1026.8 hPa | - | - | - | - |
| 1778080514 | 16.67° C | 55% | 1026.8 hPa | - | - | - | - |
| 1778079614 | 17.22° C | 55% | 1027 hPa | - | - | - | - |
| 1778078757 | 17.22° C | 54% | 1027.1 hPa | - | - | - | - |
| 1778078711 | 17.22° C | 54% | 1027.1 hPa | - | - | - | - |
| 1778076912 | 17.22° C | 54% | 1027.1 hPa | - | - | - | - |
| 1778076013 | 17.22° C | 54% | 1027 hPa | - | - | - | - |
| 1778074212 | 17.22° C | 55% | 1026.9 hPa | - | - | - | - |
| 1778071511 | 17.22° C | 58% | 1026.6 hPa | - | - | - | - |
* Rain since midnight (hover to see other rain measurements)
** Current wind speed in m/s (hover to see current wind gust speed)